Time;durP1;ratioP1;P1;durP2;ratioP2;P2;SDS_P1;SDS_P2;PMS_P1;PMS_P2;Temp;Humidity;BMP_temperature;BMP_pressure;BME280_temperature;BME280_humidity;BME280_pressure;Samples;Min_cycle;Max_cycle;Signal;HPM_P1;HPM_P2
2021/12/29 00:00:30;;;;;;;32.10;3.97;;;;;;;8.58;100.00;97752.22;5024738;28;20089;-66
2021/12/29 00:02:58;;;;;;;18.92;2.50;;;;;;;8.59;100.00;97758.34;5014811;28;20014;-66
2021/12/29 00:05:24;;;;;;;32.65;3.38;;;;;;;8.77;100.00;97758.72;5007670;28;20022;-66
2021/12/29 00:07:50;;;;;;;29.83;3.58;;;;;;;8.68;100.00;97769.44;5007391;28;20018;-66
2021/12/29 00:10:15;;;;;;;20.30;3.10;;;;;;;8.66;100.00;97767.78;5008433;28;20264;-66
2021/12/29 00:12:46;;;;;;;26.02;3.28;;;;;;;8.76;100.00;97767.50;5014652;28;20116;-66
2021/12/29 00:15:14;;;;;;;24.98;3.67;;;;;;;8.75;100.00;97768.41;5026607;28;20018;-66
2021/12/29 00:17:42;;;;;;;22.00;2.60;;;;;;;8.69;100.00;97776.44;5026521;28;20026;-66
2021/12/29 00:20:09;;;;;;;30.52;3.70;;;;;;;8.66;100.00;97776.53;5016507;28;20022;-66
2021/12/29 00:22:34;;;;;;;23.60;2.55;;;;;;;8.70;100.00;97778.16;5007333;28;20018;-66
2021/12/29 00:25:00;;;;;;;19.77;4.18;;;;;;;8.70;100.00;97787.78;5006841;28;20057;-66
2021/12/29 00:27:25;;;;;;;22.38;3.17;;;;;;;8.66;100.00;97792.25;5025939;28;20053;-66
2021/12/29 00:29:51;;;;;;;16.42;2.17;;;;;;;8.68;100.00;97795.69;5025904;28;20033;-66
2021/12/29 00:32:16;;;;;;;19.67;3.00;;;;;;;8.63;100.00;97808.06;5009137;28;20053;-66
2021/12/29 00:34:42;;;;;;;21.83;3.10;;;;;;;8.61;100.00;97809.03;5006851;28;20030;-66
2021/12/29 00:37:07;;;;;;;25.10;3.20;;;;;;;8.71;100.00;97816.59;5014236;28;20029;-66
2021/12/29 00:39:32;;;;;;;21.13;2.78;;;;;;;8.64;100.00;97809.78;5025671;28;20029;-66
2021/12/29 00:41:58;;;;;;;27.83;3.10;;;;;;;8.56;100.00;97810.88;5025826;28;20033;-66
2021/12/29 00:44:23;;;;;;;20.13;2.47;;;;;;;8.58;100.00;97830.06;5014856;28;20262;-66
2021/12/29 00:46:52;;;;;;;30.83;2.90;;;;;;;8.59;100.00;97830.03;5014765;28;20056;-66
2021/12/29 00:49:19;;;;;;;18.38;2.60;;;;;;;8.64;100.00;97830.78;5006713;28;20026;-66
2021/12/29 00:51:45;;;;;;;12.85;2.00;;;;;;;8.59;100.00;97832.66;5014388;28;20029;-66
2021/12/29 00:54:10;;;;;;;17.55;2.72;;;;;;;8.56;100.00;97830.09;5014834;28;20037;-66
2021/12/29 00:56:37;;;;;;;30.23;2.60;;;;;;;8.52;100.00;97832.84;5006491;28;20086;-66
2021/12/29 00:59:03;;;;;;;24.08;3.08;;;;;;;8.63;100.00;97843.91;5007318;28;20049;-66
2021/12/29 01:01:29;;;;;;;11.73;1.98;;;;;;;8.59;100.00;97848.41;5018615;28;20049;-66
2021/12/29 01:03:55;;;;;;;18.60;3.90;;;;;;;8.59;100.00;97855.41;5018512;28;20081;-66
2021/12/29 01:06:21;;;;;;;18.90;3.15;;;;;;;8.62;100.00;97868.44;5006300;28;20026;-66
2021/12/29 01:08:46;;;;;;;21.45;3.17;;;;;;;8.59;100.00;97864.13;5006279;28;20033;-66
2021/12/29 01:11:12;;;;;;;11.48;2.00;;;;;;;8.64;100.00;97867.50;5006233;28;20330;-66
2021/12/29 01:13:45;;;;;;;24.58;2.90;;;;;;;8.70;100.00;97867.34;5006094;28;20032;-66
2021/12/29 01:18:56;;;;;;;18.80;2.60;;;;;;;8.65;100.00;97864.00;5014560;28;20130;-66
2021/12/29 01:21:22;;;;;;;14.02;1.92;;;;;;;8.60;100.00;97865.84;5024977;28;20026;-66
2021/12/29 01:23:47;;;;;;;18.75;2.60;;;;;;;8.57;100.00;97865.91;5010706;28;20033;-66
2021/12/29 01:26:12;;;;;;;26.15;3.65;;;;;;;8.63;100.00;97873.66;5005929;28;20033;-66
2021/12/29 01:28:38;;;;;;;13.32;2.50;;;;;;;8.66;100.00;97902.44;5006102;28;20025;-66
2021/12/29 01:31:03;;;;;;;18.33;2.88;;;;;;;8.67;100.00;97904.16;5010090;28;20321;-66
2021/12/29 01:33:29;;;;;;;17.20;1.92;;;;;;;8.66;100.00;97902.44;5007961;28;20041;-66
2021/12/29 01:35:54;;;;;;;17.38;2.45;;;;;;;8.63;100.00;97909.50;5005738;28;20118;-66
2021/12/29 01:38:20;;;;;;;11.98;2.17;;;;;;;8.66;100.00;97912.91;5021477;28;20025;-66
2021/12/29 01:40:48;;;;;;;18.95;2.55;;;;;;;8.62;100.00;97927.00;5024726;28;20080;-66
2021/12/29 01:43:15;;;;;;;12.93;1.55;;;;;;;8.60;100.00;97923.56;5024710;28;20014;-66
2021/12/29 01:45:41;;;;;;;9.30;1.98;;;;;;;8.53;100.00;97932.47;5024434;28;20133;-66
2021/12/29 01:48:06;;;;;;;6.88;1.75;;;;;;;8.64;100.00;97940.09;5024355;28;20030;-66
2021/12/29 01:50:33;;;;;;;14.27;2.30;;;;;;;8.65;100.00;97947.94;5024577;28;20033;-66
2021/12/29 01:53:06;;;;;;;17.25;2.05;;;;;;;8.64;100.00;97951.44;5024182;28;20022;-66
2021/12/29 01:55:32;;;;;;;9.40;2.42;;;;;;;8.61;100.00;97950.66;5024434;28;20013;-66
2021/12/29 01:57:59;;;;;;;12.02;1.83;;;;;;;8.58;100.00;97948.09;5010486;28;20028;-66
2021/12/29 02:00:28;;;;;;;10.70;1.80;;;;;;;8.69;100.00;97944.34;5005257;28;20060;-66
2021/12/29 02:02:53;;;;;;;10.07;1.42;;;;;;;8.66;100.00;97949.66;5017826;28;20014;-66
2021/12/29 02:05:19;;;;;;;7.25;1.55;;;;;;;8.62;100.00;97955.00;5024277;28;20048;-66
2021/12/29 02:07:45;;;;;;;6.18;1.63;;;;;;;8.59;100.00;97953.31;5024011;28;20101;-66
2021/12/29 02:10:13;;;;;;;15.45;2.47;;;;;;;8.61;100.00;97945.41;5024240;28;20113;-66
2021/12/29 02:12:39;;;;;;;7.90;1.60;;;;;;;8.69;100.00;97959.19;5023853;28;20056;-66
2021/12/29 02:15:06;;;;;;;12.55;2.10;;;;;;;8.62;100.00;97957.63;5016724;28;20030;-66
2021/12/29 02:17:32;;;;;;;11.00;1.42;;;;;;;8.63;100.00;97965.44;5013037;28;20022;-66
2021/12/29 02:20:00;;;;;;;9.25;1.48;;;;;;;8.67;100.00;97967.09;5006109;28;20132;-66
2021/12/29 02:22:46;;;;;;;6.18;1.50;;;;;;;8.65;100.00;97975.91;5004865;28;20086;-66
2021/12/29 02:27:50;;;;;;;8.55;1.45;;;;;;;8.70;100.00;97988.03;5005200;28;20034;-66
2021/12/29 02:30:19;;;;;;;6.57;1.52;;;;;;;8.73;100.00;97992.31;5005959;28;20022;-66
2021/12/29 02:32:45;;;;;;;9.82;2.28;;;;;;;8.65;100.00;98000.41;5006075;28;20386;-66
2021/12/29 02:35:12;;;;;;;6.28;1.42;;;;;;;8.64;100.00;97998.66;5022297;28;20022;-66
2021/12/29 02:37:38;;;;;;;7.78;1.92;;;;;;;8.67;100.00;98009.06;5010431;28;20093;-66
2021/12/29 02:40:06;;;;;;;10.23;1.67;;;;;;;8.60;100.00;98004.88;5020558;28;20021;-66
2021/12/29 02:42:38;;;;;;;6.78;1.30;;;;;;;8.71;100.00;98005.47;5005753;28;20017;-66
2021/12/29 02:45:06;;;;;;;5.90;1.63;;;;;;;8.67;100.00;97995.13;5014411;28;20317;-66
2021/12/29 02:47:32;;;;;;;7.00;1.63;;;;;;;8.56;100.00;98010.19;5023810;28;20026;-66
2021/12/29 02:49:57;;;;;;;9.95;1.75;;;;;;;8.73;100.00;98011.56;5016222;28;20388;-66
2021/12/29 02:52:24;;;;;;;10.65;1.45;;;;;;;8.78;100.00;98012.34;5004572;28;20026;-66
2021/12/29 02:54:53;;;;;;;10.55;1.33;;;;;;;8.77;100.00;98015.00;5004750;28;20360;-66
2021/12/29 02:57:18;;;;;;;5.10;1.40;;;;;;;8.80;100.00;98015.78;5004527;28;20023;-66
2021/12/29 02:59:44;;;;;;;4.68;1.17;;;;;;;8.78;100.00;98022.84;5004500;28;20129;-66
2021/12/29 03:02:09;;;;;;;3.65;1.08;;;;;;;8.82;100.00;98028.03;5004487;28;20325;-66
2021/12/29 03:04:35;;;;;;;5.88;1.23;;;;;;;8.73;100.00;98029.94;5004389;28;20025;-66
2021/12/29 03:07:01;;;;;;;9.25;1.45;;;;;;;8.61;100.00;98019.69;5018317;28;20034;-66
2021/12/29 03:09:26;;;;;;;5.75;1.00;;;;;;;8.70;100.00;98030.00;5023468;28;20025;-66
2021/12/29 03:11:52;;;;;;;4.03;1.42;;;;;;;8.63;100.00;98038.91;5027284;28;20064;-66
2021/12/29 03:14:18;;;;;;;6.68;1.38;;;;;;;8.66;100.00;98038.84;5027410;28;20026;-66
2021/12/29 03:16:44;;;;;;;7.28;1.55;;;;;;;8.60;100.00;98044.22;5026244;28;20026;-66
2021/12/29 03:19:10;;;;;;;5.38;1.40;;;;;;;8.69;100.00;98041.41;5009423;28;20347;-66
2021/12/29 03:21:36;;;;;;;4.88;1.10;;;;;;;8.66;100.00;98037.97;5008342;28;20023;-66
2021/12/29 03:24:03;;;;;;;9.65;1.45;;;;;;;8.67;100.00;98045.78;5015651;28;20379;-66
2021/12/29 03:26:29;;;;;;;4.20;1.50;;;;;;;8.66;100.00;98043.22;5008159;28;20028;-66
2021/12/29 03:28:57;;;;;;;5.10;1.00;;;;;;;8.64;100.00;98045.88;5008090;28;20030;-66
2021/12/29 03:31:22;;;;;;;6.53;1.20;;;;;;;8.61;100.00;98045.09;5008054;28;20046;-66
2021/12/29 03:33:49;;;;;;;7.32;1.33;;;;;;;8.61;100.00;98056.41;5007917;28;20031;-66
2021/12/29 03:36:16;;;;;;;7.38;1.70;;;;;;;8.68;100.00;98060.63;5014591;28;21122;-66
2021/12/29 03:38:42;;;;;;;7.78;1.77;;;;;;;8.68;100.00;98058.00;5026070;28;20029;-66
2021/12/29 03:41:11;;;;;;;3.22;1.08;;;;;;;8.76;100.00;98066.59;5007861;28;20030;-66
2021/12/29 03:43:37;;;;;;;4.60;1.20;;;;;;;8.80;100.00;98062.16;5007804;28;20081;-66
2021/12/29 03:46:05;;;;;;;3.72;1.00;;;;;;;8.75;100.00;98062.25;5007754;28;20261;-66
2021/12/29 03:48:31;;;;;;;5.90;1.15;;;;;;;8.82;100.00;98055.09;5009074;28;20068;-66
2021/12/29 03:50:58;;;;;;;1.42;0.65;;;;;;;8.72;100.00;98054.44;5007691;28;20037;-66
2021/12/29 03:53:24;;;;;;;2.08;0.93;;;;;;;8.67;100.00;98042.34;5008653;28;20325;-66
2021/12/29 03:55:50;;;;;;;3.00;0.77;;;;;;;8.77;100.00;98057.81;5007586;28;20026;-66
2021/12/29 03:58:26;;;;;;;0.50;0.50;;;;;;;8.73;100.00;98053.53;5007545;28;20026;-66
2021/12/29 04:00:55;;;;;;;4.22;1.30;;;;;;;8.64;100.00;98056.34;5007742;28;20069;-66
2021/12/29 04:03:21;;;;;;;1.92;0.60;;;;;;;8.62;100.00;98047.69;5017878;28;20072;-66
2021/12/29 04:05:47;;;;;;;4.18;0.93;;;;;;;8.66;100.00;98058.94;5026547;28;20025;-66
2021/12/29 04:08:12;;;;;;;1.75;0.70;;;;;;;8.62;100.00;98058.16;5027007;28;20148;-66
2021/12/29 04:10:38;;;;;;;1.40;0.63;;;;;;;8.68;100.00;98065.03;5026921;28;20302;-66
2021/12/29 04:13:04;;;;;;;4.05;0.90;;;;;;;8.66;100.00;98058.94;5026924;28;20017;-66
2021/12/29 04:15:30;;;;;;;3.80;0.85;;;;;;;8.62;100.00;98063.41;5026586;28;20037;-66
2021/12/29 04:18:02;;;;;;;2.60;0.82;;;;;;;8.60;100.00;98069.56;5017801;28;20089;-66
2021/12/29 04:23:15;;;;;;;1.13;0.50;;;;;;;8.56;100.00;98071.41;5026756;28;19928;-66
2021/12/29 04:25:44;;;;;;;1.20;0.47;;;;;;;8.63;100.00;98080.88;5026192;28;20112;-66
2021/12/29 04:28:15;;;;;;;4.70;0.60;;;;;;;8.66;100.00;98083.44;5025046;28;20076;-66
2021/12/29 04:30:41;;;;;;;3.85;0.70;;;;;;;8.62;100.00;98087.03;5010755;28;20014;-66
2021/12/29 04:33:07;;;;;;;1.67;0.50;;;;;;;8.72;100.00;98085.94;5026375;28;20088;-66
2021/12/29 04:35:32;;;;;;;3.83;0.82;;;;;;;8.59;100.00;98088.84;5024924;28;20025;-66
2021/12/29 04:37:58;;;;;;;6.68;0.90;;;;;;;8.63;100.00;98090.50;5025998;28;20018;-66
2021/12/29 04:40:24;;;;;;;1.77;0.75;;;;;;;8.69;100.00;98096.50;5026391;28;20093;-66
2021/12/29 04:42:50;;;;;;;2.30;0.60;;;;;;;8.72;100.00;98106.91;5026357;28;20022;-66
2021/12/29 04:45:16;;;;;;;1.45;0.70;;;;;;;8.75;100.00;98099.00;5025752;28;20080;-66
2021/12/29 04:47:44;;;;;;;0.98;0.55;;;;;;;8.67;100.00;98108.75;5026219;28;20370;-66
2021/12/29 04:50:23;;;;;;;3.65;0.60;;;;;;;8.64;100.00;98119.31;5026464;28;20049;-66
2021/12/29 04:52:50;;;;;;;2.67;0.73;;;;;;;8.57;100.00;98117.72;5025319;28;20052;-66
2021/12/29 04:55:16;;;;;;;2.15;0.82;;;;;;;8.60;100.00;98112.41;5008401;28;20026;-66
2021/12/29 04:57:41;;;;;;;2.50;0.80;;;;;;;8.66;100.00;98117.53;5006461;28;20314;-66
2021/12/29 05:00:08;;;;;;;4.90;1.10;;;;;;;8.68;100.00;98117.50;5006448;28;20022;-66
2021/12/29 05:02:33;;;;;;;9.55;1.25;;;;;;;8.68;100.00;98120.13;5015017;28;20034;-66
2021/12/29 05:05:07;;;;;;;7.85;1.50;;;;;;;8.71;100.00;98136.66;5025741;28;20026;-66
2021/12/29 05:10:16;;;;;;;4.88;1.10;;;;;;;8.58;100.00;98131.69;5025887;28;20216;-66
2021/12/29 05:12:41;;;;;;;7.88;1.40;;;;;;;8.57;100.00;98132.56;5025486;28;20025;-66
2021/12/29 05:15:07;;;;;;;5.47;1.30;;;;;;;8.62;100.00;98136.88;5015388;28;20033;-66
2021/12/29 05:17:33;;;;;;;4.22;1.15;;;;;;;8.72;100.00;98148.91;5024817;28;20022;-66
2021/12/29 05:19:58;;;;;;;2.90;1.02;;;;;;;8.66;100.00;98149.00;5010216;28;20093;-66
2021/12/29 05:22:23;;;;;;;5.25;1.30;;;;;;;8.63;100.00;98149.06;5015463;28;20029;-66
2021/12/29 05:24:49;;;;;;;6.38;1.27;;;;;;;8.74;100.00;98157.59;5023813;28;20044;-67
2021/12/29 05:27:14;;;;;;;6.32;1.80;;;;;;;8.67;100.00;98153.34;5023405;28;20340;-67
2021/12/29 05:29:40;;;;;;;4.63;1.48;;;;;;;8.62;100.00;98156.97;5024022;28;20053;-67
2021/12/29 05:32:07;;;;;;;4.97;1.83;;;;;;;8.61;100.00;98161.34;5023649;28;20045;-67
2021/12/29 05:34:32;;;;;;;5.45;1.60;;;;;;;8.66;100.00;98156.00;5013964;28;20014;-67
2021/12/29 05:36:58;;;;;;;6.25;1.52;;;;;;;8.67;100.00;98155.13;5005704;28;20022;-67
2021/12/29 05:39:23;;;;;;;14.05;1.80;;;;;;;8.72;100.00;98156.78;5005686;28;20030;-66
2021/12/29 05:41:48;;;;;;;7.60;1.55;;;;;;;8.63;100.00;98159.56;5005628;28;20030;-66
2021/12/29 05:44:14;;;;;;;16.70;2.63;;;;;;;8.62;100.00;98152.59;5005578;28;20314;-66
2021/12/29 05:46:40;;;;;;;13.57;2.17;;;;;;;8.63;100.00;98156.06;5005521;28;20073;-66
2021/12/29 05:49:06;;;;;;;17.95;2.08;;;;;;;8.65;100.00;98151.66;5005491;28;20310;-66
2021/12/29 05:51:31;;;;;;;14.05;2.17;;;;;;;8.64;100.00;98155.19;5005429;28;20026;-66
2021/12/29 05:53:57;;;;;;;18.85;2.45;;;;;;;8.63;100.00;98149.06;5005594;28;20085;-66
2021/12/29 05:56:22;;;;;;;18.65;2.70;;;;;;;8.59;100.00;98147.41;5005348;28;20030;-66
2021/12/29 05:58:48;;;;;;;22.58;3.63;;;;;;;8.62;100.00;98147.34;5005553;28;20253;-66
2021/12/29 06:01:13;;;;;;;15.50;2.25;;;;;;;8.62;100.00;98144.72;5005282;28;20080;-66
2021/12/29 06:03:39;;;;;;;23.50;2.78;;;;;;;8.59;100.00;98143.91;5005238;28;20029;-66
2021/12/29 06:06:05;;;;;;;20.40;3.15;;;;;;;8.56;100.00;98147.47;5005211;28;20352;-66
2021/12/29 06:08:31;;;;;;;20.00;2.80;;;;;;;8.53;100.00;98144.91;5005248;28;20037;-67
2021/12/29 06:10:56;;;;;;;23.10;3.90;;;;;;;8.51;100.00;98149.31;5005087;28;20030;-67
2021/12/29 06:13:22;;;;;;;22.75;3.55;;;;;;;8.47;100.00;98152.88;5004997;28;20022;-67
2021/12/29 06:15:47;;;;;;;20.52;3.15;;;;;;;8.46;100.00;98172.13;5005043;28;20030;-66
2021/12/29 06:18:13;;;;;;;19.15;3.25;;;;;;;8.45;100.00;98175.63;5004944;28;20085;-66
2021/12/29 06:20:39;;;;;;;20.13;3.15;;;;;;;8.41;100.00;98173.97;5004974;28;20086;-66
2021/12/29 06:23:06;;;;;;;14.18;2.88;;;;;;;8.42;100.00;98180.94;5004884;28;20049;-66
2021/12/29 06:25:33;;;;;;;18.88;2.95;;;;;;;8.41;100.00;98184.47;5004585;28;20042;-66
2021/12/29 06:27:59;;;;;;;23.80;2.65;;;;;;;8.42;100.00;98174.84;5004818;28;20030;-66
2021/12/29 06:30:25;;;;;;;21.10;2.88;;;;;;;8.43;100.00;98182.69;5004811;28;20026;-66
2021/12/29 06:32:51;;;;;;;19.08;3.00;;;;;;;8.42;100.00;98180.94;5004668;28;20034;-66
2021/12/29 06:35:16;;;;;;;15.43;2.05;;;;;;;8.36;100.00;98188.91;5004984;28;20191;-66
2021/12/29 06:37:45;;;;;;;18.92;2.10;;;;;;;8.28;100.00;98198.69;5002955;28;20269;-66
2021/12/29 06:40:12;;;;;;;22.90;2.70;;;;;;;8.26;100.00;98197.81;5004680;28;20030;-66
2021/12/29 06:42:37;;;;;;;20.45;2.28;;;;;;;8.22;100.00;98197.91;5004605;28;20030;-66
2021/12/29 06:45:04;;;;;;;15.55;1.67;;;;;;;8.21;100.00;98186.53;5003708;28;20033;-66
2021/12/29 06:47:30;;;;;;;21.65;2.20;;;;;;;8.26;100.00;98196.97;5004786;28;20306;-66
2021/12/29 06:49:55;;;;;;;11.38;2.10;;;;;;;8.22;100.00;98198.78;5004529;28;20033;-66
2021/12/29 06:52:22;;;;;;;10.73;1.60;;;;;;;8.19;100.00;98192.69;5004498;28;20038;-66
2021/12/29 06:54:47;;;;;;;10.98;2.75;;;;;;;8.15;100.00;98197.13;5004458;28;20030;-66
2021/12/29 06:57:13;;;;;;;6.40;1.33;;;;;;;8.17;100.00;98184.84;5004737;28;20027;-66
2021/12/29 06:59:38;;;;;;;19.35;2.50;;;;;;;8.15;100.00;98181.41;5004452;28;20050;-66
2021/12/29 07:02:04;;;;;;;9.18;1.60;;;;;;;8.15;100.00;98186.66;5004437;28;20030;-66
2021/12/29 07:04:29;;;;;;;10.95;1.63;;;;;;;8.15;100.00;98185.75;5004490;28;20022;-66
2021/12/29 07:06:55;;;;;;;12.80;3.05;;;;;;;8.17;100.00;98200.56;5004404;28;20049;-66
2021/12/29 07:09:21;;;;;;;8.15;1.50;;;;;;;8.19;100.00;98203.16;5004375;28;20034;-66
2021/12/29 07:11:46;;;;;;;11.63;1.80;;;;;;;8.21;100.00;98218.00;5004592;28;20033;-66
2021/12/29 07:14:12;;;;;;;7.82;1.60;;;;;;;8.34;100.00;98223.91;5004236;28;20078;-66
2021/12/29 07:16:39;;;;;;;9.70;1.60;;;;;;;8.48;100.00;98228.03;5004344;28;20026;-66
2021/12/29 07:19:06;;;;;;;4.20;1.50;;;;;;;8.50;100.00;98228.88;5004268;28;20085;-66
2021/12/29 07:21:31;;;;;;;4.68;1.30;;;;;;;8.61;100.00;98233.94;5004263;28;20035;-66
2021/12/29 07:23:58;;;;;;;2.63;1.17;;;;;;;8.64;100.00;98237.34;5004002;28;20361;-66
2021/12/29 07:26:25;;;;;;;8.27;1.58;;;;;;;8.61;100.00;98224.28;5004504;28;20023;-66
2021/12/29 07:28:51;;;;;;;7.80;1.40;;;;;;;8.58;100.00;98244.50;5004200;28;20030;-66
2021/12/29 07:31:17;;;;;;;7.68;1.40;;;;;;;8.51;100.00;98238.47;5004161;28;20034;-66
2021/12/29 07:33:43;;;;;;;5.38;1.15;;;;;;;8.56;100.00;98246.25;5004133;28;20321;-66
2021/12/29 07:36:08;;;;;;;6.45;1.27;;;;;;;8.47;100.00;98252.53;5004134;28;20037;-66
2021/12/29 07:38:34;;;;;;;5.28;2.03;;;;;;;8.47;100.00;98255.16;5004077;28;20030;-66
2021/12/29 07:40:59;;;;;;;5.43;1.50;;;;;;;8.48;100.00;98264.75;5004107;28;20046;-66
2021/12/29 07:43:25;;;;;;;15.70;2.70;;;;;;;8.52;100.00;98281.31;5004053;28;20034;-66
2021/12/29 07:45:53;;;;;;;11.77;4.13;;;;;;;8.54;100.00;98269.91;5004064;28;20069;-66
2021/12/29 07:48:19;;;;;;;13.23;5.50;;;;;;;8.56;100.00;98288.22;5004010;28;20026;-66
2021/12/29 07:50:45;;;;;;;22.95;5.35;;;;;;;8.55;100.00;98282.09;5003954;28;20030;-66
2021/12/29 07:53:10;;;;;;;21.95;5.28;;;;;;;8.57;100.00;98292.56;5003955;28;20027;-66
2021/12/29 07:55:35;;;;;;;17.33;5.20;;;;;;;8.60;100.00;98306.50;5004410;28;20027;-66
2021/12/29 07:58:01;;;;;;;21.98;5.57;;;;;;;8.66;100.00;98297.66;5007567;28;20065;-66
2021/12/29 08:00:27;;;;;;;24.38;5.63;;;;;;;8.64;100.00;98297.69;5012716;28;20026;-66
2021/12/29 08:02:52;;;;;;;15.85;4.90;;;;;;;8.66;100.00;98287.19;5016290;28;20030;-66
2021/12/29 08:05:18;;;;;;;23.70;5.43;;;;;;;8.68;100.00;98288.88;5018420;28;20030;-66
2021/12/29 08:07:44;;;;;;;29.00;5.85;;;;;;;8.67;100.00;98289.78;5015768;28;20073;-66
2021/12/29 08:10:09;;;;;;;22.08;4.72;;;;;;;8.67;100.00;98287.16;5017450;28;20025;-66
2021/12/29 08:12:35;;;;;;;21.92;5.70;;;;;;;8.72;100.00;98295.81;5016908;28;20029;-66
2021/12/29 08:15:00;;;;;;;18.25;5.03;;;;;;;8.72;100.00;98285.31;5015770;28;20081;-66
2021/12/29 08:17:26;;;;;;;24.83;5.38;;;;;;;8.76;100.00;98287.00;5017641;28;20032;-66
2021/12/29 08:19:51;;;;;;;15.90;4.82;;;;;;;8.78;100.00;98295.72;5021640;28;20026;-66
2021/12/29 08:22:17;;;;;;;24.23;4.68;;;;;;;8.82;100.00;98290.41;5025228;28;20029;-66
2021/12/29 08:24:43;;;;;;;29.20;5.30;;;;;;;8.85;100.00;98295.59;5025524;28;20038;-66
2021/12/29 08:27:10;;;;;;;16.17;3.85;;;;;;;8.88;100.00;98285.03;5025732;28;20135;-66
2021/12/29 08:29:36;;;;;;;29.77;5.88;;;;;;;8.86;100.00;98287.69;5025664;28;20107;-66
2021/12/29 08:32:02;;;;;;;25.83;4.80;;;;;;;8.91;100.00;98285.84;5025618;28;20329;-66
2021/12/29 08:34:27;;;;;;;26.20;5.47;;;;;;;8.88;100.00;98285.03;5025115;28;20025;-66
2021/12/29 08:36:53;;;;;;;19.65;4.10;;;;;;;8.91;100.00;98292.84;5024591;28;20018;-66
2021/12/29 08:39:19;;;;;;;24.42;4.93;;;;;;;8.96;100.00;98299.78;5023379;28;20026;-66
2021/12/29 08:41:49;;;;;;;31.98;4.90;;;;;;;8.96;100.00;98305.03;5023606;28;20022;-66
2021/12/29 08:44:15;;;;;;;25.83;5.30;;;;;;;8.97;100.00;98305.88;5005787;28;20053;-66
2021/12/29 08:46:41;;;;;;;23.05;5.07;;;;;;;9.00;100.00;98290.06;5005353;28;20037;-66
2021/12/29 08:49:06;;;;;;;25.00;5.05;;;;;;;9.02;100.00;98293.53;5011619;28;20025;-66
2021/12/29 08:51:32;;;;;;;26.40;4.95;;;;;;;9.00;100.00;98300.56;5019589;28;20025;-66
2021/12/29 08:53:57;;;;;;;29.20;6.18;;;;;;;9.03;100.00;98306.63;5016665;28;20045;-66
2021/12/29 08:56:25;;;;;;;32.45;5.22;;;;;;;8.99;100.00;98293.59;5015546;28;20017;-66
2021/12/29 08:58:51;;;;;;;22.55;4.75;;;;;;;9.02;100.00;98298.78;5010726;28;20041;-66
2021/12/29 09:01:18;;;;;;;15.32;4.13;;;;;;;9.02;100.00;98289.16;5016048;28;20084;-66
2021/12/29 09:03:44;;;;;;;22.25;5.05;;;;;;;9.02;100.00;98297.03;5039466;28;20123;-66
2021/12/29 09:06:10;;;;;;;14.48;4.32;;;;;;;9.05;100.00;98298.72;5027831;28;20061;-66
2021/12/29 09:08:35;;;;;;;27.65;4.93;;;;;;;9.05;100.00;98293.47;5025792;28;20321;-66
2021/12/29 09:11:01;;;;;;;20.30;4.55;;;;;;;9.03;100.00;98301.38;5044743;28;20056;-66
2021/12/29 09:13:26;;;;;;;25.65;4.72;;;;;;;9.03;100.00;98305.75;5038103;28;20022;-66
2021/12/29 09:15:56;;;;;;;19.65;5.78;;;;;;;9.05;100.00;98309.22;5015747;28;20018;-66
2021/12/29 09:18:27;;;;;;;14.52;4.35;;;;;;;9.06;100.00;98310.94;5035510;28;20325;-66
2021/12/29 09:20:53;;;;;;;19.10;4.70;;;;;;;9.07;100.00;98313.53;5041716;28;20021;-66
2021/12/29 09:23:19;;;;;;;17.98;4.25;;;;;;;9.05;100.00;98314.47;5010092;28;20028;-66
2021/12/29 09:25:47;;;;;;;20.38;4.00;;;;;;;9.06;100.00;98313.56;5004522;28;20357;-66
2021/12/29 09:28:15;;;;;;;16.88;4.50;;;;;;;9.04;100.00;98317.97;5004886;28;20022;-66
2021/12/29 09:30:43;;;;;;;19.42;3.78;;;;;;;9.05;100.00;98324.97;5004916;28;20026;-66
2021/12/29 09:33:10;;;;;;;18.77;4.60;;;;;;;9.08;100.00;98324.94;5021342;28;20022;-66
2021/12/29 09:35:36;;;;;;;15.35;3.92;;;;;;;9.04;100.00;98329.34;5037716;28;20044;-66
2021/12/29 09:38:03;;;;;;;21.20;4.15;;;;;;;9.11;100.00;98335.38;5044195;28;20022;-66
2021/12/29 09:40:29;;;;;;;17.17;3.60;;;;;;;9.14;100.00;98330.06;5043790;28;20013;-66
2021/12/29 09:42:55;;;;;;;19.25;4.15;;;;;;;9.15;100.00;98337.03;5044095;28;20025;-66
2021/12/29 09:45:21;;;;;;;22.67;4.28;;;;;;;9.16;100.00;98323.00;5044104;28;20329;-66
2021/12/29 09:47:48;;;;;;;22.88;3.97;;;;;;;9.14;100.00;98322.19;5044048;28;20025;-66
2021/12/29 09:50:16;;;;;;;18.10;4.22;;;;;;;9.17;100.00;98327.38;5044251;28;20249;-66
2021/12/29 09:52:42;;;;;;;23.65;3.58;;;;;;;9.17;100.00;98325.59;5043810;28;20025;-66
2021/12/29 09:55:14;;;;;;;26.00;4.43;;;;;;;9.15;100.00;98321.28;5043821;28;20212;-66
2021/12/29 09:57:45;;;;;;;16.13;3.17;;;;;;;9.18;100.00;98302.84;5043910;28;20048;-66
2021/12/29 10:00:19;;;;;;;18.27;2.90;;;;;;;9.15;100.00;98308.16;5043838;28;20017;-66
2021/12/29 10:02:44;;;;;;;18.73;2.80;;;;;;;9.16;100.00;98313.38;5022164;28;20229;-66
2021/12/29 10:05:10;;;;;;;25.00;2.92;;;;;;;9.21;100.00;98315.91;5023752;28;20018;-66
2021/12/29 10:07:35;;;;;;;18.38;3.35;;;;;;;9.21;100.00;98310.66;5023833;28;20025;-66
2021/12/29 10:10:03;;;;;;;20.73;3.50;;;;;;;9.18;100.00;98315.97;5039369;28;20031;-66
2021/12/29 10:12:28;;;;;;;13.95;2.47;;;;;;;9.21;100.00;98311.50;5039953;28;20044;-66
2021/12/29 10:14:57;;;;;;;15.93;2.65;;;;;;;9.21;100.00;98310.66;5023975;28;20260;-66
2021/12/29 10:17:27;;;;;;;25.88;3.50;;;;;;;9.22;100.00;98302.75;5023712;28;20045;-66
2021/12/29 10:20:04;;;;;;;18.63;2.72;;;;;;;9.27;100.00;98289.56;5021970;28;20268;-66
2021/12/29 10:22:29;;;;;;;17.67;2.72;;;;;;;9.23;100.00;98295.72;5023655;28;20376;-66
2021/12/29 10:25:16;;;;;;;16.52;2.58;;;;;;;9.25;100.00;98291.31;5023373;28;20244;-66
2021/12/29 10:27:42;;;;;;;20.17;3.20;;;;;;;9.23;100.00;98303.59;5023598;28;20033;-66
2021/12/29 10:30:22;;;;;;;21.90;2.72;;;;;;;9.28;100.00;98354.28;5023542;28;20329;-67
2021/12/29 10:32:49;;;;;;;32.67;3.42;;;;;;;9.22;100.00;98349.16;5023067;28;20025;-67
2021/12/29 10:35:33;;;;;;;23.50;3.20;;;;;;;9.13;100.00;98344.94;5018926;28;20084;-67
2021/12/29 10:38:22;;;;;;;25.23;3.78;;;;;;;9.11;100.00;98332.75;5014561;28;20316;-67
2021/12/29 10:40:49;;;;;;;18.77;2.60;;;;;;;9.14;100.00;98319.56;5012255;28;20093;-66
2021/12/29 10:43:16;;;;;;;29.15;3.33;;;;;;;9.16;100.00;98328.25;5005480;28;20029;-66
2021/12/29 10:45:44;;;;;;;18.88;2.65;;;;;;;9.16;100.00;98321.25;5003286;28;20026;-66
2021/12/29 10:48:17;;;;;;;14.30;3.03;;;;;;;9.17;100.00;98324.75;5003646;28;20261;-66
2021/12/29 10:50:58;;;;;;;18.58;2.78;;;;;;;9.20;100.00;98315.03;5003626;28;20046;-66
2021/12/29 10:53:24;;;;;;;22.83;3.97;;;;;;;9.16;100.00;98318.63;5003540;28;20041;-66
2021/12/29 10:55:51;;;;;;;14.65;2.78;;;;;;;9.17;100.00;98314.25;5003516;28;20022;-66
2021/12/29 10:58:20;;;;;;;23.08;3.47;;;;;;;9.19;100.00;98309.81;5003153;28;20076;-66
2021/12/29 11:00:50;;;;;;;20.45;2.90;;;;;;;9.25;100.00;98312.34;5003521;28;20026;-66
2021/12/29 11:03:21;;;;;;;18.20;2.92;;;;;;;9.21;100.00;98322.03;5011399;28;20041;-67
2021/12/29 11:05:53;;;;;;;19.73;3.42;;;;;;;9.33;100.00;98299.94;5013958;28;20877;-67
2021/12/29 11:08:18;;;;;;;12.23;2.30;;;;;;;9.42;100.00;98310.22;5014685;28;20034;-67
2021/12/29 11:10:46;;;;;;;11.77;2.20;;;;;;;9.38;100.00;98313.81;5012123;28;20017;-67
2021/12/29 11:13:12;;;;;;;15.45;2.83;;;;;;;9.47;100.00;98313.66;5013764;28;20037;-67
2021/12/29 11:15:41;;;;;;;18.27;3.08;;;;;;;9.41;100.00;98313.75;5012653;28;20068;-66
2021/12/29 11:18:11;;;;;;;19.92;2.67;;;;;;;9.35;100.00;98321.75;5011876;28;20026;-66
2021/12/29 11:20:39;;;;;;;13.52;2.63;;;;;;;9.36;100.00;98313.84;5014746;28;20249;-66
2021/12/29 11:23:08;;;;;;;19.13;2.78;;;;;;;9.35;100.00;98308.63;5012214;28;20029;-66
2021/12/29 11:25:35;;;;;;;21.85;2.58;;;;;;;9.46;100.00;98310.16;5013865;28;20046;-66
2021/12/29 11:28:01;;;;;;;16.23;2.97;;;;;;;9.42;100.00;98300.59;5014285;28;20068;-66
2021/12/29 11:30:27;;;;;;;15.25;2.92;;;;;;;9.47;100.00;98318.91;5012279;28;20053;-66
2021/12/29 11:33:09;;;;;;;12.70;2.92;;;;;;;9.45;100.00;98315.44;5016313;28;20030;-66
2021/12/29 11:35:44;;;;;;;14.98;3.10;;;;;;;9.43;100.00;98312.00;5024348;28;20026;-66
2021/12/29 11:38:10;;;;;;;11.23;2.05;;;;;;;9.47;100.00;98303.13;5014578;28;20048;-66